Time;durP1;ratioP1;P1;durP2;ratioP2;P2;SDS_P1;SDS_P2;PMS_P1;PMS_P2;Temp;Humidity;BMP_temperature;BMP_pressure;BME280_temperature;BME280_humidity;BME280_pressure;Samples;Min_cycle;Max_cycle;Signal;HPM_P1;HPM_P2
2022/04/27 00:01:11;;;;;;;27.40;24.83;;;7.60;99.90;;;;;;5085688;28;20040;-78
2022/04/27 00:03:38;;;;;;;26.30;23.90;;;7.60;99.90;;;;;;5113041;28;20473;-78
2022/04/27 00:06:04;;;;;;;24.85;22.67;;;7.60;99.90;;;;;;5113471;28;20032;-78
2022/04/27 00:08:31;;;;;;;27.05;24.52;;;7.50;99.90;;;;;;5112441;28;20040;-79
2022/04/27 00:10:57;;;;;;;27.92;25.52;;;7.50;99.90;;;;;;5113139;28;20043;-79
2022/04/27 00:13:23;;;;;;;25.58;23.52;;;7.50;99.90;;;;;;5112871;28;20032;-78
2022/04/27 00:15:49;;;;;;;28.45;25.55;;;7.50;99.90;;;;;;5093472;28;20070;-78
2022/04/27 00:18:15;;;;;;;26.92;24.52;;;7.40;99.90;;;;;;5112952;28;20043;-79
2022/04/27 00:20:42;;;;;;;28.13;25.70;;;7.40;99.90;;;;;;5104601;28;20047;-79
2022/04/27 00:23:08;;;;;;;28.35;25.58;;;7.40;99.90;;;;;;5094539;28;20024;-79
2022/04/27 00:25:35;;;;;;;27.48;25.02;;;7.40;99.90;;;;;;5112082;28;20373;-78
2022/04/27 00:28:01;;;;;;;29.10;24.23;;;7.40;99.90;;;;;;5064780;28;20056;-78
2022/04/27 00:30:27;;;;;;;28.83;26.00;;;7.40;99.90;;;;;;5078447;28;20514;-78
2022/04/27 00:32:53;;;;;;;28.88;25.80;;;7.40;99.90;;;;;;5081896;28;20043;-78
2022/04/27 00:35:20;;;;;;;27.23;24.73;;;7.50;99.90;;;;;;5112737;28;20036;-78
2022/04/27 00:37:46;;;;;;;27.85;25.27;;;7.50;99.90;;;;;;5111081;28;20027;-78
2022/04/27 00:40:12;;;;;;;27.17;24.50;;;7.40;99.90;;;;;;5112885;28;20032;-78
2022/04/27 00:42:38;;;;;;;27.35;24.75;;;7.50;99.90;;;;;;5111969;28;20044;-78
2022/04/27 00:45:05;;;;;;;27.67;24.92;;;7.50;99.90;;;;;;5111640;28;20035;-78
2022/04/27 00:47:32;;;;;;;27.80;25.35;;;7.40;99.90;;;;;;5082625;28;20031;-78
2022/04/27 00:49:59;;;;;;;26.80;24.42;;;7.50;99.90;;;;;;5102866;28;20027;-78
2022/04/27 00:52:25;;;;;;;24.55;22.27;;;7.40;99.90;;;;;;5111408;28;20043;-78
2022/04/27 00:54:53;;;;;;;28.60;25.73;;;7.50;99.90;;;;;;5099356;28;20035;-77
2022/04/27 00:57:23;;;;;;;27.30;24.90;;;7.50;99.90;;;;;;5112404;28;20035;-78
2022/04/27 00:59:49;;;;;;;26.40;24.08;;;7.50;99.90;;;;;;5099324;28;20110;-79
2022/04/27 01:02:16;;;;;;;29.27;26.40;;;7.50;99.90;;;;;;5096551;28;20042;-78
2022/04/27 01:04:43;;;;;;;28.67;26.15;;;7.60;99.90;;;;;;5100068;28;20054;-78
2022/04/27 01:07:11;;;;;;;26.98;24.38;;;7.60;99.90;;;;;;5081613;28;20398;-78
2022/04/27 01:09:38;;;;;;;27.27;24.67;;;7.60;99.90;;;;;;5070926;28;20044;-78
2022/04/27 01:12:06;;;;;;;25.48;23.17;;;7.60;99.90;;;;;;5086206;28;20044;-79
2022/04/27 01:14:45;;;;;;;27.08;24.38;;;7.60;99.90;;;;;;5088296;28;20044;-79
2022/04/27 01:17:11;;;;;;;28.40;24.52;;;7.50;99.90;;;;;;5082998;28;20039;-78
2022/04/27 01:19:38;;;;;;;28.35;25.55;;;7.50;99.90;;;;;;5079532;28;20481;-78
2022/04/27 01:22:05;;;;;;;34.65;24.15;;;7.40;99.90;;;;;;5059654;28;20044;-78
2022/04/27 01:24:36;;;;;;;26.67;24.05;;;7.40;99.90;;;;;;5081864;28;20063;-79
2022/04/27 01:27:03;;;;;;;28.60;26.00;;;7.40;99.90;;;;;;5085323;28;20033;-78
2022/04/27 01:29:30;;;;;;;28.10;25.40;;;7.40;99.90;;;;;;5082609;28;20389;-79
2022/04/27 01:32:00;;;;;;;28.52;25.70;;;7.40;99.90;;;;;;5090218;28;20035;-79
2022/04/27 01:34:27;;;;;;;27.80;25.38;;;7.40;99.90;;;;;;5091503;28;20038;-79
2022/04/27 01:37:59;;;;;;;30.08;27.42;;;7.40;99.90;;;;;;5094606;28;20044;-79
2022/04/27 01:39:45;;;;;;;29.80;26.98;;;7.40;99.90;;;;;;5075005;28;20024;-79
2022/04/27 01:42:11;;;;;;;28.67;25.77;;;7.30;99.90;;;;;;5089342;28;20477;-80
2022/04/27 01:44:38;;;;;;;29.15;26.10;;;7.30;99.90;;;;;;5089842;28;20035;-79
2022/04/27 01:47:05;;;;;;;29.00;26.30;;;7.20;99.90;;;;;;5090083;28;20032;-78
2022/04/27 01:49:31;;;;;;;30.38;27.88;;;7.30;99.90;;;;;;5088780;28;20044;-79
2022/04/27 01:54:42;;;;;;;28.05;25.70;;;7.10;99.90;;;;;;5106417;28;20476;-79
2022/04/27 01:57:09;;;;;;;30.38;27.67;;;7.00;99.90;;;;;;5078985;28;20051;-79
2022/04/27 01:59:37;;;;;;;32.25;29.35;;;7.00;99.90;;;;;;5085024;28;20415;-79
2022/04/27 02:02:03;;;;;;;32.92;29.85;;;6.90;99.90;;;;;;5089642;28;20052;-79
2022/04/27 02:04:30;;;;;;;33.13;30.17;;;6.90;99.90;;;;;;5105110;28;20059;-79
2022/04/27 02:06:56;;;;;;;35.13;31.55;;;6.80;99.90;;;;;;5108542;28;20039;-78
2022/04/27 02:09:22;;;;;;;37.45;33.70;;;6.80;99.90;;;;;;5093320;28;20038;-78
2022/04/27 02:11:50;;;;;;;37.70;33.83;;;6.80;99.90;;;;;;5081671;28;20036;-79
2022/04/27 02:14:17;;;;;;;35.45;31.52;;;6.80;99.90;;;;;;5086258;28;20405;-79
2022/04/27 02:16:43;;;;;;;37.15;33.88;;;6.90;99.90;;;;;;5095487;28;20039;-79
2022/04/27 02:19:14;;;;;;;36.00;32.72;;;6.90;99.90;;;;;;5093872;28;20476;-79
2022/04/27 02:21:42;;;;;;;34.67;31.60;;;6.90;99.90;;;;;;5080783;28;20044;-79
2022/04/27 02:24:10;;;;;;;35.03;31.52;;;6.80;99.90;;;;;;5082267;28;20036;-79
2022/04/27 02:26:36;;;;;;;36.13;32.85;;;6.90;99.90;;;;;;5112992;28;20028;-79
2022/04/27 02:29:03;;;;;;;33.78;30.73;;;6.80;99.90;;;;;;5113452;28;20042;-80
2022/04/27 02:31:30;;;;;;;31.63;28.83;;;6.80;99.90;;;;;;5079976;28;20469;-80
2022/04/27 02:33:56;;;;;;;33.08;30.15;;;6.80;99.90;;;;;;5077223;28;20052;-79
2022/04/27 02:36:24;;;;;;;33.55;30.33;;;6.70;99.90;;;;;;5076319;28;20036;-79
2022/04/27 02:38:51;;;;;;;35.50;32.00;;;6.70;99.90;;;;;;5096433;28;20642;-79
2022/04/27 02:41:18;;;;;;;35.88;32.65;;;6.70;99.90;;;;;;5097185;28;20400;-79
2022/04/27 02:43:44;;;;;;;35.72;32.17;;;6.70;99.90;;;;;;5095447;28;20048;-79
2022/04/27 02:46:16;;;;;;;35.42;32.05;;;6.70;99.90;;;;;;5088330;28;20039;-79
2022/04/27 02:51:48;;;;;;;35.35;31.92;;;6.60;99.90;;;;;;5105000;28;20035;-79
2022/04/27 02:51:51;;;;;;;33.03;30.27;;;6.50;99.90;;;;;;5077437;28;20040;-79
2022/04/27 02:54:46;;;;;;;35.60;30.65;;;6.50;99.90;;;;;;5077206;28;20457;-80
2022/04/27 02:57:13;;;;;;;34.65;30.85;;;6.40;99.90;;;;;;5088929;28;20051;-80
2022/04/27 02:59:41;;;;;;;33.72;30.73;;;6.30;99.90;;;;;;5076701;28;20040;-79
2022/04/27 03:02:08;;;;;;;34.90;31.60;;;6.20;99.90;;;;;;5111070;28;20047;-80
2022/04/27 03:04:34;;;;;;;36.88;33.42;;;6.20;99.90;;;;;;5095628;28;20040;-80
2022/04/27 03:07:02;;;;;;;36.80;33.47;;;6.10;99.90;;;;;;5113497;28;20369;-79
2022/04/27 03:09:32;;;;;;;36.40;33.08;;;6.10;99.90;;;;;;5104822;28;20046;-79
2022/04/27 03:11:58;;;;;;;38.22;34.28;;;6.00;99.90;;;;;;5115536;28;20057;-79
2022/04/27 03:14:31;;;;;;;37.25;33.67;;;5.90;99.90;;;;;;5092466;28;20066;-79
2022/04/27 03:16:58;;;;;;;39.70;35.88;;;5.90;99.90;;;;;;5077623;28;20032;-79
2022/04/27 03:19:24;;;;;;;41.38;37.10;;;6.00;99.90;;;;;;5099395;28;20384;-79
2022/04/27 03:21:52;;;;;;;42.00;38.03;;;6.00;99.90;;;;;;5100464;28;20047;-79
2022/04/27 03:24:20;;;;;;;40.50;36.38;;;5.80;99.90;;;;;;5107754;28;20039;-79
2022/04/27 03:26:47;;;;;;;38.00;34.50;;;5.70;99.90;;;;;;5094174;28;20391;-79
2022/04/27 03:29:16;;;;;;;44.65;39.75;;;5.70;99.90;;;;;;5096187;28;20036;-79
2022/04/27 03:31:43;;;;;;;39.20;35.65;;;5.70;99.90;;;;;;5076314;28;20424;-79
2022/04/27 03:34:10;;;;;;;36.63;33.10;;;5.70;99.90;;;;;;5095208;28;20480;-80
2022/04/27 03:36:38;;;;;;;35.67;32.20;;;5.60;99.90;;;;;;5078502;28;20040;-79
2022/04/27 03:39:04;;;;;;;34.75;31.42;;;5.50;99.90;;;;;;5076336;28;20389;-80
2022/04/27 03:41:31;;;;;;;34.00;30.90;;;5.50;99.90;;;;;;5076213;28;20370;-79
2022/04/27 03:43:58;;;;;;;34.17;30.70;;;5.40;99.90;;;;;;5084683;28;20052;-80
2022/04/27 03:46:25;;;;;;;33.28;30.27;;;5.20;99.90;;;;;;5096307;28;20487;-80
2022/04/27 03:48:52;;;;;;;32.38;29.45;;;5.10;99.90;;;;;;5085100;28;20039;-80
2022/04/27 03:51:18;;;;;;;33.75;30.35;;;5.00;99.90;;;;;;5096277;28;20117;-80
2022/04/27 03:53:47;;;;;;;35.05;31.85;;;5.00;99.90;;;;;;5077371;28;20062;-79
2022/04/27 03:56:13;;;;;;;37.88;34.25;;;5.10;99.90;;;;;;5102651;28;20040;-79
2022/04/27 03:58:40;;;;;;;36.15;32.78;;;5.10;99.90;;;;;;5107007;28;20050;-80
2022/04/27 04:01:08;;;;;;;36.60;33.20;;;5.10;99.90;;;;;;5091550;28;20040;-79
2022/04/27 04:03:34;;;;;;;38.75;34.72;;;5.00;99.90;;;;;;5071509;28;20047;-80
2022/04/27 04:06:00;;;;;;;35.90;32.50;;;5.00;99.90;;;;;;5111698;28;20055;-83
2022/04/27 04:08:38;;;;;;;36.20;32.70;;;4.90;99.90;;;;;;5094178;28;20473;-78
2022/04/27 04:11:05;;;;;;;34.38;31.13;;;4.90;99.90;;;;;;5111597;28;20043;-77
2022/04/27 04:14:10;;;;;;;35.65;32.22;;;4.80;99.90;;;;;;5093297;28;20036;-77
2022/04/27 04:16:43;;;;;;;36.45;32.90;;;4.80;99.90;;;;;;5110643;28;20145;-78
2022/04/27 04:19:35;;;;;;;38.00;34.05;;;4.80;99.90;;;;;;5100840;28;20516;-79
2022/04/27 04:22:18;;;;;;;38.33;34.40;;;4.80;99.90;;;;;;5094638;28;20082;-78
2022/04/27 04:30:39;;;;;;;37.72;33.80;;;4.80;99.90;;;;;;5088750;28;20094;-79
2022/04/27 04:33:23;;;;;;;36.67;33.25;;;4.80;99.90;;;;;;5112554;28;20041;-79
2022/04/27 04:35:53;;;;;;;39.40;35.70;;;4.90;99.90;;;;;;5106322;28;20654;-78
2022/04/27 04:38:19;;;;;;;36.85;33.10;;;5.00;99.90;;;;;;5094371;28;20662;-79
2022/04/27 04:40:46;;;;;;;49.83;35.35;;;5.10;99.90;;;;;;5107845;28;20044;-79
2022/04/27 04:43:14;;;;;;;35.83;32.58;;;5.20;99.90;;;;;;5093924;28;20059;-78
2022/04/27 04:45:42;;;;;;;39.70;34.53;;;5.20;99.90;;;;;;5076264;28;20397;-78
2022/04/27 04:48:31;;;;;;;33.20;29.85;;;5.10;99.90;;;;;;5108026;28;20039;-79
2022/04/27 04:51:17;;;;;;;33.03;30.05;;;5.10;99.90;;;;;;5080599;28;20036;-78
2022/04/27 04:53:49;;;;;;;34.80;31.33;;;5.10;99.90;;;;;;5104985;28;20039;-78
2022/04/27 04:56:27;;;;;;;34.50;31.35;;;5.40;99.90;;;;;;5078779;28;20042;-79
2022/04/27 04:59:11;;;;;;;34.30;30.80;;;5.80;99.90;;;;;;5099675;28;20486;-78
2022/04/27 05:01:55;;;;;;;32.05;29.20;;;6.40;99.90;;;;;;5112859;28;20042;-78
2022/04/27 05:04:53;;;;;;;31.20;28.05;;;6.90;99.90;;;;;;5055952;28;20304;-78
2022/04/27 05:07:38;;;;;;;27.58;24.77;;;7.30;99.90;;;;;;5082850;28;20039;-78
2022/04/27 05:10:39;;;;;;;23.65;21.40;;;7.60;99.90;;;;;;5088922;28;20039;-78
2022/04/27 05:13:25;;;;;;;24.63;22.42;;;7.90;99.90;;;;;;5089927;28;20040;-78
2022/04/27 05:16:13;;;;;;;24.52;22.20;;;7.60;99.90;;;;;;5073141;28;20047;-78
2022/04/27 05:18:59;;;;;;;24.15;21.45;;;7.30;99.90;;;;;;5090928;28;20040;-78
2022/04/27 05:21:46;;;;;;;25.98;23.48;;;7.10;99.90;;;;;;5048068;28;20044;-78
2022/04/27 05:24:24;;;;;;;26.40;23.80;;;7.10;99.90;;;;;;5072409;28;20393;-79
2022/04/27 05:27:08;;;;;;;29.75;25.17;;;7.20;99.90;;;;;;5084754;28;20035;-79
2022/04/27 05:33:03;;;;;;;27.95;24.70;;;7.30;99.90;;;;;;5074686;28;20039;-78
2022/04/27 05:35:52;;;;;;;28.02;25.30;;;7.30;99.90;;;;;;5072399;28;20047;-79
2022/04/27 05:38:24;;;;;;;29.25;26.50;;;7.40;99.90;;;;;;5084026;28;20044;-78
2022/04/27 05:40:50;;;;;;;30.80;28.00;;;7.50;99.90;;;;;;5093601;28;20055;-78
2022/04/27 05:43:35;;;;;;;29.35;26.60;;;7.50;99.90;;;;;;5083616;28;20055;-79
2022/04/27 05:46:19;;;;;;;31.13;28.30;;;7.50;99.90;;;;;;5073043;28;20043;-79
2022/04/27 05:49:04;;;;;;;29.00;26.20;;;7.80;99.90;;;;;;5090840;28;20393;-78
2022/04/27 05:51:49;;;;;;;26.25;23.48;;;8.50;99.90;;;;;;5082855;28;20043;-78
2022/04/27 05:54:24;;;;;;;22.60;20.35;;;9.70;99.90;;;;;;5073309;28;20047;-78
2022/04/27 05:56:50;;;;;;;20.92;18.88;;;10.80;99.90;;;;;;5089899;28;20032;-78
2022/04/27 05:59:35;;;;;;;19.23;17.38;;;11.30;99.90;;;;;;5090206;28;20099;-79
2022/04/27 06:02:20;;;;;;;20.00;17.90;;;11.70;99.90;;;;;;5090142;28;20043;-77
2022/04/27 06:04:47;;;;;;;20.52;18.42;;;11.90;99.90;;;;;;5094555;28;20051;-79
2022/04/27 06:07:13;;;;;;;17.63;15.77;;;11.60;99.90;;;;;;5061613;28;20389;-79
2022/04/27 06:09:40;;;;;;;16.63;15.10;;;10.90;99.90;;;;;;5084298;28;20040;-79
2022/04/27 06:12:12;;;;;;;16.50;14.52;;;10.90;99.90;;;;;;5088525;28;20119;-79
2022/04/27 06:14:44;;;;;;;18.63;15.10;;;11.00;99.90;;;;;;5101402;28;20035;-79
2022/04/27 06:17:31;;;;;;;20.42;13.77;;;10.50;99.90;;;;;;5084569;28;20028;-78
2022/04/27 06:20:00;;;;;;;16.58;14.93;;;10.90;99.90;;;;;;5090926;28;20055;-78
2022/04/27 06:22:28;;;;;;;20.88;15.02;;;11.00;99.90;;;;;;5089639;28;20044;-79
2022/04/27 06:24:54;;;;;;;18.27;16.20;;;10.90;99.90;;;;;;5080897;28;20040;-78
2022/04/27 06:27:58;;;;;;;15.68;14.27;;;11.30;99.90;;;;;;5073586;28;20031;-78
2022/04/27 06:30:25;;;;;;;16.05;13.48;;;11.50;99.90;;;;;;5107663;28;20043;-78
2022/04/27 06:32:52;;;;;;;16.88;14.57;;;12.00;99.90;;;;;;5092931;28;20046;-78
2022/04/27 06:35:19;;;;;;;16.10;14.60;;;12.00;99.90;;;;;;5083382;28;20044;-79
2022/04/27 06:37:49;;;;;;;15.07;13.57;;;11.50;99.90;;;;;;5091693;28;20043;-78
2022/04/27 06:40:15;;;;;;;15.55;13.93;;;12.10;99.90;;;;;;5110927;28;20027;-79
2022/04/27 06:42:43;;;;;;;15.85;13.82;;;13.00;99.90;;;;;;5091965;28;20417;-79
2022/04/27 06:45:28;;;;;;;16.48;14.13;;;13.20;99.90;;;;;;5093799;28;20051;-78
2022/04/27 06:48:14;;;;;;;16.80;13.98;;;12.10;99.90;;;;;;5111145;28;20047;-79
2022/04/27 06:50:59;;;;;;;15.30;13.77;;;11.20;99.90;;;;;;5110856;28;20464;-79
2022/04/27 06:53:44;;;;;;;17.77;13.90;;;11.20;99.90;;;;;;5110822;28;20043;-78
2022/04/27 06:56:33;;;;;;;17.88;13.93;;;11.30;99.90;;;;;;5105472;28;20028;-79
2022/04/27 06:59:22;;;;;;;17.95;14.10;;;11.50;99.90;;;;;;5107588;28;20047;-80
2022/04/27 07:01:54;;;;;;;17.38;15.68;;;11.70;99.90;;;;;;5112492;28;20039;-79
2022/04/27 07:04:20;;;;;;;16.27;14.65;;;12.10;99.90;;;;;;5113174;28;20362;-78
2022/04/27 07:06:47;;;;;;;15.45;13.80;;;12.50;99.90;;;;;;5111962;28;20062;-77
2022/04/27 07:09:13;;;;;;;14.93;13.18;;;12.80;99.90;;;;;;5114360;28;20030;-78
2022/04/27 07:11:42;;;;;;;15.43;13.95;;;13.30;99.90;;;;;;5114214;28;20031;-80
2022/04/27 07:14:15;;;;;;;15.95;13.23;;;13.10;99.90;;;;;;5114347;28;20031;-79
2022/04/27 07:16:45;;;;;;;18.50;13.73;;;13.00;99.90;;;;;;5114324;28;20357;-78
2022/04/27 07:19:15;;;;;;;15.27;13.67;;;13.90;98.70;;;;;;5114329;28;20456;-78
2022/04/27 07:21:41;;;;;;;13.43;11.97;;;15.30;96.50;;;;;;5113686;28;20032;-78
2022/04/27 07:24:07;;;;;;;15.07;13.25;;;14.90;95.60;;;;;;5114244;28;20035;-78
2022/04/27 07:26:34;;;;;;;14.07;12.63;;;13.60;97.10;;;;;;5114379;28;20044;-79
2022/04/27 07:29:00;;;;;;;16.75;13.55;;;12.30;99.90;;;;;;5104633;28;20051;-78
2022/04/27 07:31:27;;;;;;;17.08;14.68;;;11.90;99.90;;;;;;5100853;28;20023;-78
2022/04/27 07:33:53;;;;;;;17.85;15.00;;;11.40;99.90;;;;;;5113830;28;20039;-77
2022/04/27 07:36:20;;;;;;;17.48;15.05;;;10.80;99.90;;;;;;5113322;28;20048;-78
2022/04/27 07:38:46;;;;;;;15.63;14.10;;;10.60;99.90;;;;;;5113758;28;20031;-79
2022/04/27 07:41:12;;;;;;;15.82;14.32;;;11.10;99.90;;;;;;5113966;28;20027;-79
2022/04/27 07:43:38;;;;;;;16.83;15.13;;;11.80;99.90;;;;;;5102586;28;20040;-78
2022/04/27 07:46:06;;;;;;;15.10;13.65;;;12.60;99.90;;;;;;5108200;28;20043;-79
2022/04/27 07:48:32;;;;;;;17.60;12.60;;;13.70;98.70;;;;;;5114192;28;20039;-77
2022/04/27 07:50:59;;;;;;;13.95;12.48;;;14.10;97.10;;;;;;5112181;28;20036;-79
2022/04/27 07:53:26;;;;;;;15.98;13.00;;;13.60;98.50;;;;;;5122087;28;20011;-78
2022/04/27 07:55:53;;;;;;;14.75;13.18;;;13.80;97.30;;;;;;5115479;28;20032;-78
2022/04/27 07:58:19;;;;;;;15.07;12.77;;;14.20;97.20;;;;;;5096871;28;20031;-78
2022/04/27 08:00:45;;;;;;;13.25;11.85;;;14.60;95.80;;;;;;5113819;28;20035;-79
2022/04/27 08:03:12;;;;;;;19.92;13.30;;;14.50;95.70;;;;;;5105729;28;20055;-78
2022/04/27 08:05:38;;;;;;;14.40;11.90;;;14.50;95.40;;;;;;5108829;28;20039;-80
2022/04/27 08:08:07;;;;;;;16.25;12.63;;;14.50;95.00;;;;;;5111780;28;20030;-78
2022/04/27 08:10:33;;;;;;;13.90;12.55;;;15.20;94.60;;;;;;5113682;28;20035;-79
2022/04/27 08:13:00;;;;;;;15.75;14.02;;;14.40;95.30;;;;;;5093717;28;20051;-78
2022/04/27 08:15:26;;;;;;;16.77;12.90;;;14.50;96.60;;;;;;5113270;28;20479;-78
2022/04/27 08:18:04;;;;;;;14.25;12.85;;;15.00;94.30;;;;;;5112751;28;20036;-79
2022/04/27 08:23:20;;;;;;;13.75;12.00;;;14.50;95.10;;;;;;5113639;28;20050;-78
2022/04/27 08:25:47;;;;;;;15.02;11.70;;;14.90;95.60;;;;;;5112833;28;20487;-79
2022/04/27 08:28:14;;;;;;;13.23;11.23;;;16.30;90.80;;;;;;5114706;28;20031;-78
2022/04/27 08:30:42;;;;;;;12.82;11.05;;;15.70;89.60;;;;;;5112798;28;20023;-79
2022/04/27 08:33:09;;;;;;;12.32;11.13;;;15.70;90.50;;;;;;5094604;28;20036;-78
2022/04/27 08:35:36;;;;;;;13.00;11.70;;;15.60;90.30;;;;;;5109209;28;20042;-78
2022/04/27 08:38:04;;;;;;;12.75;10.80;;;15.70;91.40;;;;;;5078781;28;20457;-78
2022/04/27 08:40:31;;;;;;;10.77;9.73;;;15.40;92.60;;;;;;5113072;28;20039;-78
2022/04/27 08:42:59;;;;;;;12.45;11.15;;;15.30;92.70;;;;;;5112227;28;20040;-78
2022/04/27 08:45:26;;;;;;;13.07;11.50;;;15.80;93.00;;;;;;5101591;28;20043;-78
2022/04/27 08:47:53;;;;;;;11.07;9.40;;;16.90;90.90;;;;;;5094400;28;20027;-78
2022/04/27 08:50:21;;;;;;;12.20;11.00;;;17.40;83.60;;;;;;5112641;28;20072;-78
2022/04/27 08:52:49;;;;;;;11.63;10.00;;;17.00;83.90;;;;;;5092912;28;20075;-79
2022/04/27 08:55:16;;;;;;;11.80;10.73;;;17.30;85.60;;;;;;5112453;28;20027;-79
2022/04/27 08:57:45;;;;;;;13.57;10.60;;;18.10;85.30;;;;;;5111680;28;20027;-79
2022/04/27 09:00:13;;;;;;;12.23;11.03;;;17.60;78.90;;;;;;5112351;28;20040;-78
2022/04/27 09:02:41;;;;;;;10.50;9.32;;;16.50;82.20;;;;;;5101490;28;20048;-79
2022/04/27 09:05:18;;;;;;;13.02;10.05;;;16.50;85.00;;;;;;5083409;28;20493;-78
2022/04/27 09:07:52;;;;;;;12.40;9.07;;;16.70;84.50;;;;;;5109751;28;20388;-78
2022/04/27 09:10:21;;;;;;;12.25;11.05;;;17.50;80.50;;;;;;5104237;28;20043;-79
2022/04/27 09:12:52;;;;;;;10.63;9.57;;;17.90;79.60;;;;;;5110633;28;20368;-79
2022/04/27 09:15:26;;;;;;;12.93;9.70;;;17.90;81.20;;;;;;5111908;28;20039;-79
2022/04/27 09:20:50;;;;;;;10.18;9.15;;;18.30;77.20;;;;;;5096278;28;20461;-77
2022/04/27 09:23:21;;;;;;;9.40;8.25;;;18.00;78.40;;;;;;5111905;28;20374;-78
2022/04/27 09:25:49;;;;;;;12.90;9.13;;;18.60;73.30;;;;;;5111530;28;20027;-77
2022/04/27 09:28:15;;;;;;;10.68;9.57;;;18.80;71.60;;;;;;5111904;28;20031;-78
2022/04/27 09:30:47;;;;;;;9.50;8.07;;;17.90;74.00;;;;;;5111178;28;20030;-78
2022/04/27 09:33:28;;;;;;;10.05;9.05;;;17.70;75.10;;;;;;5111909;28;20035;-77
2022/04/27 09:35:56;;;;;;;9.80;8.30;;;17.80;73.30;;;;;;5112058;28;20027;-78
2022/04/27 09:38:22;;;;;;;9.13;8.13;;;17.00;78.70;;;;;;5093321;28;20036;-78
2022/04/27 09:40:54;;;;;;;9.48;7.40;;;16.60;80.40;;;;;;5111616;28;20035;-77
2022/04/27 09:43:46;;;;;;;9.95;7.40;;;16.40;80.10;;;;;;5111439;28;20040;-77
2022/04/27 09:46:22;;;;;;;7.82;7.05;;;16.50;82.30;;;;;;5110728;28;20492;-78
2022/04/27 09:49:11;;;;;;;10.32;9.32;;;16.90;76.60;;;;;;5108203;28;20027;-77
2022/04/27 09:51:52;;;;;;;9.02;8.23;;;16.40;81.50;;;;;;5111770;28;20028;-79
2022/04/27 09:54:20;;;;;;;16.70;6.82;;;18.40;75.10;;;;;;5111887;28;20385;-78
2022/04/27 09:56:50;;;;;;;11.55;8.27;;;18.30;77.80;;;;;;5099347;28;20042;-77
2022/04/27 09:59:20;;;;;;;8.80;8.00;;;18.90;71.80;;;;;;5111106;28;20031;-77
2022/04/27 10:01:49;;;;;;;11.32;10.23;;;17.50;74.10;;;;;;5111558;28;20031;-78
2022/04/27 10:04:20;;;;;;;11.10;10.15;;;16.50;81.10;;;;;;5111761;28;20054;-78
2022/04/27 10:06:47;;;;;;;18.42;10.68;;;16.20;85.30;;;;;;5111028;28;20054;-78
2022/04/27 10:09:14;;;;;;;10.57;9.55;;;15.90;87.90;;;;;;5109937;28;20085;-77
2022/04/27 10:11:41;;;;;;;13.05;9.50;;;15.60;86.70;;;;;;5107606;28;20042;-77
2022/04/27 10:14:08;;;;;;;11.45;9.77;;;15.30;87.70;;;;;;5111865;28;20039;-77
2022/04/27 10:16:35;;;;;;;11.43;9.80;;;15.30;88.10;;;;;;5110165;28;20034;-78
2022/04/27 10:19:01;;;;;;;12.35;9.88;;;15.00;89.50;;;;;;5111414;28;20032;-77
2022/04/27 10:21:43;;;;;;;13.55;10.95;;;14.90;90.30;;;;;;5061456;28;20036;-78
2022/04/27 10:24:10;;;;;;;14.85;9.70;;;14.80;91.10;;;;;;5090709;28;20396;-77
2022/04/27 10:26:37;;;;;;;13.43;12.07;;;15.00;92.10;;;;;;5108008;28;20039;-77
2022/04/27 10:29:05;;;;;;;14.45;11.77;;;15.00;92.60;;;;;;5112596;28;20380;-78
2022/04/27 10:31:40;;;;;;;14.02;12.30;;;15.10;91.70;;;;;;5103538;28;20028;-77
2022/04/27 10:34:20;;;;;;;14.15;12.73;;;15.10;92.00;;;;;;5111070;28;20046;-78
2022/04/27 10:36:51;;;;;;;13.93;12.23;;;15.00;92.30;;;;;;5096580;28;20047;-78
2022/04/27 10:39:22;;;;;;;15.73;11.55;;;15.00;92.60;;;;;;5097432;28;20040;-77
2022/04/27 10:41:54;;;;;;;13.55;10.18;;;15.00;91.80;;;;;;5111394;28;20047;-77
2022/04/27 10:44:21;;;;;;;11.68;10.57;;;15.10;91.80;;;;;;5115346;28;20036;-77
2022/04/27 10:46:47;;;;;;;11.25;9.90;;;15.30;91.10;;;;;;5113761;28;20460;-76
2022/04/27 10:49:24;;;;;;;11.40;10.25;;;15.20;90.50;;;;;;5096896;28;20387;-78
2022/04/27 10:52:05;;;;;;;12.27;11.10;;;15.20;91.10;;;;;;5093376;28;20028;-78
2022/04/27 10:54:33;;;;;;;;;;;15.30;91.30;;;;;;5103459;28;20034;-78
2022/04/27 10:57:14;;;;;;;13.27;11.77;;;15.30;92.30;;;;;;5114495;28;19986;-78
2022/04/27 10:59:56;;;;;;;14.10;12.57;;;15.30;92.10;;;;;;5074966;28;20115;-78
2022/04/27 11:02:32;;;;;;;12.23;9.70;;;15.40;91.30;;;;;;5097858;28;20035;-78
2022/04/27 11:04:58;;;;;;;16.60;11.85;;;15.60;91.10;;;;;;5096453;28;20050;-80
2022/04/27 11:07:38;;;;;;;13.70;12.40;;;15.10;91.20;;;;;;5114688;28;20042;-80
2022/04/27 11:10:18;;;;;;;13.57;12.32;;;15.10;92.00;;;;;;5095415;28;20035;-79
2022/04/27 11:12:47;;;;;;;12.87;11.27;;;15.20;91.10;;;;;;5114130;28;20043;-78
2022/04/27 11:15:16;;;;;;;12.45;11.23;;;15.50;90.80;;;;;;5113108;28;20046;-77
2022/04/27 11:17:43;;;;;;;13.63;11.45;;;15.80;88.70;;;;;;5100992;28;20384;-78
2022/04/27 11:20:31;;;;;;;13.80;12.63;;;15.90;90.10;;;;;;5114643;28;20380;-77
2022/04/27 11:22:59;;;;;;;14.02;12.63;;;15.90;90.80;;;;;;5112835;28;20039;-78
2022/04/27 11:25:28;;;;;;;13.15;11.85;;;15.80;88.80;;;;;;5094755;28;20489;-77
2022/04/27 11:27:55;;;;;;;12.43;11.23;;;15.80;89.40;;;;;;5105169;28;20032;-77
2022/04/27 11:30:23;;;;;;;13.98;12.20;;;15.80;89.10;;;;;;5112931;28;20024;-77
2022/04/27 11:32:49;;;;;;;13.90;12.57;;;15.70;89.20;;;;;;5113078;28;20039;-80
2022/04/27 11:35:17;;;;;;;15.25;11.00;;;15.60;89.00;;;;;;5077270;28;20031;-79
2022/04/27 11:37:43;;;;;;;11.73;10.48;;;15.80;89.90;;;;;;5101906;28;20032;-79
2022/04/27 11:40:25;;;;;;;11.15;10.18;;;15.80;88.00;;;;;;5113504;28;20030;-80
2022/04/27 11:42:52;;;;;;;11.07;10.02;;;15.50;89.20;;;;;;5094093;28;20044;-80
2022/04/27 11:45:23;;;;;;;12.70;11.50;;;15.40;90.00;;;;;;5112908;28;20031;-80
2022/04/27 11:48:01;;;;;;;13.88;12.50;;;15.40;89.00;;;;;;5114230;28;20042;-80
2022/04/27 11:50:30;;;;;;;13.02;11.68;;;15.30;88.80;;;;;;5096280;28;20374;-80
2022/04/27 11:53:05;;;;;;;13.20;11.95;;;15.50;88.60;;;;;;5102538;28;20040;-79
2022/04/27 11:55:32;;;;;;;12.60;11.30;;;15.60;87.80;;;;;;5109716;28;20035;-79
2022/04/27 11:58:00;;;;;;;12.45;10.80;;;15.70;87.80;;;;;;5097814;28;20377;-80
2022/04/27 12:00:28;;;;;;;9.70;8.80;;;16.00;88.50;;;;;;5113569;28;20484;-79
2022/04/27 12:03:03;;;;;;;14.10;10.93;;;16.40;84.90;;;;;;5103772;28;20041;-79
2022/04/27 12:05:34;;;;;;;15.88;10.35;;;16.90;84.40;;;;;;5112954;28;20412;-77
2022/04/27 12:08:02;;;;;;;10.60;9.57;;;17.70;81.30;;;;;;5114082;28;20050;-77
2022/04/27 12:10:29;;;;;;;12.00;10.73;;;18.20;77.70;;;;;;5113511;28;20424;-77
2022/04/27 12:12:59;;;;;;;12.27;10.88;;;18.20;77.40;;;;;;5111863;28;20048;-79
2022/04/27 12:15:26;;;;;;;10.27;9.20;;;17.70;76.10;;;;;;5095138;28;20388;-77
2022/04/27 12:17:57;;;;;;;12.38;9.80;;;17.20;78.10;;;;;;5113127;28;20028;-80
2022/04/27 12:20:25;;;;;;;12.20;10.93;;;16.80;78.90;;;;;;5112314;28;20372;-78
2022/04/27 12:22:56;;;;;;;10.63;9.52;;;16.80;79.60;;;;;;5112553;28;20098;-77
2022/04/27 12:25:32;;;;;;;11.68;10.00;;;16.90;78.90;;;;;;5096747;28;20051;-77
2022/04/27 12:28:00;;;;;;;11.73;10.23;;;16.70;80.10;;;;;;5112757;28;20043;-76
2022/04/27 12:30:26;;;;;;;10.60;9.50;;;16.70;79.20;;;;;;5097975;28;20032;-77
2022/04/27 12:32:53;;;;;;;10.65;9.52;;;16.90;80.70;;;;;;5116949;28;20031;-77
2022/04/27 12:38:11;;;;;;;11.45;9.02;;;16.90;76.30;;;;;;5112680;28;20512;-78
2022/04/27 12:40:40;;;;;;;9.18;8.38;;;17.00;79.20;;;;;;5112596;28;20028;-78
2022/04/27 12:43:07;;;;;;;10.60;9.55;;;17.00;75.30;;;;;;5112205;28;20051;-78
2022/04/27 12:45:35;;;;;;;9.88;8.88;;;16.90;79.00;;;;;;5112827;28;20028;-78
2022/04/27 12:48:06;;;;;;;9.70;8.75;;;17.10;77.70;;;;;;5111727;28;20039;-79
2022/04/27 12:50:48;;;;;;;11.68;9.13;;;17.10;77.30;;;;;;5113675;28;20382;-78
2022/04/27 12:53:18;;;;;;;11.15;9.60;;;17.30;78.20;;;;;;5111943;28;20763;-78
2022/04/27 12:56:19;;;;;;;9.63;8.63;;;17.20;75.80;;;;;;5111568;28;20032;-79
2022/04/27 12:59:04;;;;;;;10.77;9.02;;;17.00;75.60;;;;;;5093103;28;20032;-78
2022/04/27 13:01:31;;;;;;;12.98;10.45;;;17.50;76.70;;;;;;5112447;28;20028;-78
2022/04/27 13:03:58;;;;;;;10.63;9.38;;;17.30;74.00;;;;;;5092537;28;20044;-79
2022/04/27 13:06:24;;;;;;;11.48;8.38;;;17.20;74.70;;;;;;5074054;28;20516;-78
2022/04/27 13:08:51;;;;;;;9.32;8.52;;;17.50;75.30;;;;;;5092011;28;20373;-78
2022/04/27 13:14:05;;;;;;;13.40;9.10;;;17.90;71.30;;;;;;5093756;28;20039;-78
2022/04/27 13:16:32;;;;;;;8.95;8.10;;;17.60;70.80;;;;;;5092240;28;20032;-77